TAF KBTL
KBTL 090540Z 0906/1006 16004KT P6SM OVC035 FM091600 16010KT P6SM OVC060=
METAR KBTL
WC KBTL
WS KBTL
WV KBTL